Time;durP1;ratioP1;P1;durP2;ratioP2;P2;SDS_P1;SDS_P2;PMS_P1;PMS_P2;Temp;Humidity;BMP_temperature;BMP_pressure;BME280_temperature;BME280_humidity;BME280_pressure;Samples;Min_cycle;Max_cycle;Signal;HPM_P1;HPM_P2
2021/09/24 00:02:25;;;;;;;;;;;;;;;16.42;63.31;97405.19;1657357;85;24865;-88
2021/09/24 00:04:51;;;;;;;;;;;;;;;16.41;63.28;97390.36;1680354;84;20920;-89
2021/09/24 00:07:19;;;;;;;;;;;;;;;16.40;63.24;97398.45;1653399;86;25744;-88
2021/09/24 00:09:49;;;;;;;;;;;;;;;16.39;63.22;97408.18;1653721;86;21999;-88
2021/09/24 00:12:13;;;;;;;;;;;;;;;16.37;63.19;97411.97;1659812;84;26083;-89
2021/09/24 00:14:39;;;;;;;;;;;;;;;16.37;63.14;97408.83;1657291;86;20271;-89
2021/09/24 00:17:05;;;;;;;;;;;;;;;16.37;63.13;97404.05;1652737;86;20578;-88
2021/09/24 00:19:31;;;;;;;;;;;;;;;16.37;63.12;97408.83;1656707;85;24740;-89
2021/09/24 00:21:57;;;;;;;;;;;;;;;16.37;63.10;97418.57;1652596;84;20303;-89
2021/09/24 00:24:23;;;;;;;;;;;;;;;16.36;63.05;97420.41;1647592;84;21055;-89
2021/09/24 00:26:50;;;;;;;;;;;;;;;16.37;63.02;97408.01;1653317;84;24439;-89
2021/09/24 00:29:16;;;;;;;;;;;;;;;16.37;63.02;97412.80;1634199;86;20230;-89
2021/09/24 00:31:42;;;;;;;;;;;;;;;16.36;63.00;97423.55;1688496;84;20810;-89
2021/09/24 00:34:08;;;;;;;;;;;;;;;16.36;63.01;97430.15;1691671;83;21960;-89
2021/09/24 00:36:34;;;;;;;;;;;;;;;16.36;62.98;97427.02;1657084;85;21073;-89
2021/09/24 00:39:00;;;;;;;;;;;;;;;16.36;62.94;97427.51;1690229;84;20288;-89
2021/09/24 00:41:26;;;;;;;;;;;;;;;16.35;62.95;97420.08;1689545;84;20327;-89
2021/09/24 00:43:52;;;;;;;;;;;;;;;16.34;62.94;97421.06;1688927;83;24765;-89
2021/09/24 00:46:25;;;;;;;;;;;;;;;16.35;62.92;97427.17;1652337;86;22157;-88
2021/09/24 00:48:51;;;;;;;;;;;;;;;16.34;62.93;97428.98;1654912;85;26002;-88
2021/09/24 00:51:18;;;;;;;;;;;;;;;16.34;62.89;97430.31;1659425;85;24517;-88
2021/09/24 00:53:47;;;;;;;;;;;;;;;16.33;62.85;97426.84;1658206;85;20236;-88
2021/09/24 00:56:16;;;;;;;;;;;;;;;16.34;62.87;97427.67;1609406;85;23202;-89
2021/09/24 00:58:44;;;;;;;;;;;;;;;16.33;62.83;97429.48;1664000;85;22051;-89
2021/09/24 01:01:13;;;;;;;;;;;;;;;16.33;62.81;97436.08;1674811;83;21585;-89
2021/09/24 01:03:41;;;;;;;;;;;;;;;16.31;62.80;97424.85;1688771;83;20219;-89
2021/09/24 01:06:11;;;;;;;;;;;;;;;16.33;62.79;97422.88;1683936;83;20172;-89
2021/09/24 01:08:39;;;;;;;;;;;;;;;16.31;62.76;97428.81;1690177;83;20668;-88
2021/09/24 01:11:10;;;;;;;;;;;;;;;16.31;62.74;97431.45;1688558;83;20264;-88
2021/09/24 01:13:37;;;;;;;;;;;;;;;16.33;62.72;97435.26;1694013;83;26427;-88
2021/09/24 01:16:05;;;;;;;;;;;;;;;16.30;62.70;97425.87;1688034;83;20615;-88
2021/09/24 01:18:39;;;;;;;;;;;;;;;16.28;62.71;97417.77;1689266;83;20612;-88
2021/09/24 01:21:08;;;;;;;;;;;;;;;16.28;62.68;97425.20;1666824;85;24829;-88
2021/09/24 01:23:37;;;;;;;;;;;;;;;16.27;62.70;97426.68;1688525;83;20506;-88
2021/09/24 01:26:03;;;;;;;;;;;;;;;16.26;62.70;97432.45;1689843;83;26055;-87
2021/09/24 01:28:34;;;;;;;;;;;;;;;16.25;62.70;97431.32;1692451;82;20126;-88
2021/09/24 01:31:09;;;;;;;;;;;;;;;16.23;62.69;97440.72;1686103;83;20456;-87
2021/09/24 01:33:39;;;;;;;;;;;;;;;16.22;62.72;97439.56;1688968;83;20202;-88
2021/09/24 01:36:05;;;;;;;;;;;;;;;16.22;62.72;97436.92;1690313;83;21998;-88
2021/09/24 01:38:39;;;;;;;;;;;;;;;16.20;62.73;97433.64;1690590;83;22503;-88
2021/09/24 01:41:12;;;;;;;;;;;;;;;16.19;62.75;97422.25;1687089;83;25281;-88
2021/09/24 01:43:41;;;;;;;;;;;;;;;16.20;62.76;97422.55;1684320;83;20175;-88
2021/09/24 01:46:13;;;;;;;;;;;;;;;16.17;62.77;97419.44;1688466;83;21209;-88
2021/09/24 01:48:42;;;;;;;;;;;;;;;16.15;62.78;97414.31;1687085;83;20178;-88
2021/09/24 01:51:14;;;;;;;;;;;;;;;16.12;62.81;97412.02;1687057;83;26231;-88
2021/09/24 01:53:42;;;;;;;;;;;;;;;16.11;62.83;97406.41;1688321;83;20451;-89
2021/09/24 01:56:09;;;;;;;;;;;;;;;16.09;62.87;97407.58;1687773;83;20172;-88
2021/09/24 01:58:38;;;;;;;;;;;;;;;16.09;62.87;97414.98;1690660;84;25726;-87
2021/09/24 02:01:12;;;;;;;;;;;;;;;16.09;62.92;97414.98;1689957;83;20185;-88
2021/09/24 02:03:47;;;;;;;;;;;;;;;16.10;62.94;97418.45;1657594;86;26697;-88
2021/09/24 02:06:14;;;;;;;;;;;;;;;16.09;62.94;97410.22;1648831;84;24355;-88
2021/09/24 02:08:42;;;;;;;;;;;;;;;16.10;62.96;97428.51;1672333;84;20235;-88
2021/09/24 02:11:11;;;;;;;;;;;;;;;16.11;62.97;97419.61;1653160;84;24749;-88
2021/09/24 02:13:39;;;;;;;;;;;;;;;16.10;63.00;97423.23;1655418;84;22037;-88
2021/09/24 02:16:07;;;;;;;;;;;;;;;16.12;63.03;97421.27;1668829;85;21246;-88
2021/09/24 02:18:35;;;;;;;;;;;;;;;16.12;63.05;97420.44;1662514;85;24570;-88
2021/09/24 02:21:04;;;;;;;;;;;;;;;16.14;63.06;97427.21;1674416;85;20273;-88
2021/09/24 02:23:30;;;;;;;;;;;;;;;16.15;63.06;97435.92;1665577;85;24700;-88
2021/09/24 02:25:58;;;;;;;;;;;;;;;16.16;63.09;97427.02;1695897;83;22017;-88
2021/09/24 02:28:32;;;;;;;;;;;;;;;16.14;63.12;97431.66;1695775;83;26736;-88
2021/09/24 02:31:01;;;;;;;;;;;;;;;16.14;63.13;97439.09;1694749;83;20168;-88
2021/09/24 02:33:29;;;;;;;;;;;;;;;16.12;63.15;97445.51;1681288;84;20231;-88
2021/09/24 02:35:55;;;;;;;;;;;;;;;16.12;63.17;97452.94;1658088;84;24841;-88
2021/09/24 02:38:21;;;;;;;;;;;;;;;16.12;63.20;97455.58;1662378;84;22052;-88
2021/09/24 02:40:47;;;;;;;;;;;;;;;16.12;63.22;97454.26;1643360;85;26122;-89
2021/09/24 02:43:13;;;;;;;;;;;;;;;16.11;63.25;97449.96;1677800;83;25143;-89
2021/09/24 02:45:39;;;;;;;;;;;;;;;16.11;63.27;97459.20;1677214;84;20321;-88
2021/09/24 02:48:05;;;;;;;;;;;;;;;16.11;63.35;97463.66;1671958;83;20306;-88
2021/09/24 02:50:31;;;;;;;;;;;;;;;16.10;63.43;97468.10;1671377;84;20846;-88
2021/09/24 02:52:58;;;;;;;;;;;;;;;16.08;63.53;97473.23;1686728;83;26735;-88
2021/09/24 02:55:24;;;;;;;;;;;;;;;16.05;63.58;97467.78;1679293;83;24712;-88
2021/09/24 02:57:50;;;;;;;;;;;;;;;16.05;63.66;97482.29;1685438;83;20503;-88
2021/09/24 03:00:16;;;;;;;;;;;;;;;16.04;63.74;97485.12;1663631;85;24834;-88
2021/09/24 03:02:42;;;;;;;;;;;;;;;16.01;63.85;97480.98;1697026;83;21947;-88
2021/09/24 03:05:08;;;;;;;;;;;;;;;16.00;63.89;97491.69;1698176;83;25996;-88
2021/09/24 03:07:35;;;;;;;;;;;;;;;15.97;63.95;97488.91;1695664;83;24435;-88
2021/09/24 03:10:00;;;;;;;;;;;;;;;15.96;64.05;97496.97;1696669;83;20299;-88
2021/09/24 03:12:26;;;;;;;;;;;;;;;15.95;64.11;97511.98;1698609;83;20244;-88
2021/09/24 03:14:52;;;;;;;;;;;;;;;15.95;64.18;97509.83;1695880;83;20803;-88
2021/09/24 03:17:21;;;;;;;;;;;;;;;15.94;64.26;97510.32;1660968;84;26670;-87
2021/09/24 03:19:47;;;;;;;;;;;;;;;15.91;64.34;97521.22;1678496;85;24507;-87
2021/09/24 03:22:12;;;;;;;;;;;;;;;15.88;64.41;97514.92;1673717;85;20266;-88
2021/09/24 03:24:40;;;;;;;;;;;;;;;15.86;64.47;97507.69;1658615;84;20831;-88
2021/09/24 03:27:09;;;;;;;;;;;;;;;15.85;64.56;97517.41;1679391;84;22179;-87
2021/09/24 03:29:35;;;;;;;;;;;;;;;15.84;64.61;97522.35;1695385;83;26043;-88
2021/09/24 03:32:02;;;;;;;;;;;;;;;15.84;64.71;97524.16;1697356;83;24476;-88
2021/09/24 03:34:28;;;;;;;;;;;;;;;15.84;64.79;97529.44;1697379;83;20217;-88
2021/09/24 03:36:54;;;;;;;;;;;;;;;15.84;64.90;97530.27;1696420;83;24759;-88
2021/09/24 03:39:20;;;;;;;;;;;;;;;15.83;64.98;97539.66;1698872;83;20323;-88
2021/09/24 03:41:46;;;;;;;;;;;;;;;15.79;65.07;97560.77;1692864;83;26136;-89
2021/09/24 03:44:12;;;;;;;;;;;;;;;15.74;65.18;97576.25;1694962;83;24396;-88
2021/09/24 03:46:38;;;;;;;;;;;;;;;15.65;65.34;97582.00;1695088;83;20282;-88
2021/09/24 03:49:04;;;;;;;;;;;;;;;15.61;65.51;97595.16;1689285;83;24743;-88
2021/09/24 03:51:31;;;;;;;;;;;;;;;15.56;65.70;97593.97;1665160;84;22008;-88
2021/09/24 03:53:59;;;;;;;;;;;;;;;15.52;65.92;97588.69;1673240;84;26867;-88
2021/09/24 03:56:25;;;;;;;;;;;;;;;15.48;66.14;97595.58;1660694;84;24534;-88
2021/09/24 03:58:52;;;;;;;;;;;;;;;15.46;66.35;97586.16;1649192;85;20747;-88
2021/09/24 04:01:18;;;;;;;;;;;;;;;15.44;66.55;97596.03;1672111;84;24928;-88
2021/09/24 04:03:44;;;;;;;;;;;;;;;15.41;66.74;97605.59;1674969;84;20290;-88
2021/09/24 04:06:10;;;;;;;;;;;;;;;15.33;66.90;97601.09;1672415;84;21035;-88
2021/09/24 04:08:36;;;;;;;;;;;;;;;15.35;67.10;97595.18;1666269;84;24346;-88
2021/09/24 04:11:03;;;;;;;;;;;;;;;15.32;67.26;97607.86;1653626;84;20474;-88
2021/09/24 04:13:35;;;;;;;;;;;;;;;15.30;67.43;97623.83;1670367;84;24867;-87
2021/09/24 04:16:07;;;;;;;;;;;;;;;15.25;67.58;97619.52;1669340;84;22092;-88
2021/09/24 04:18:33;;;;;;;;;;;;;;;15.25;67.77;97622.16;1670630;84;26073;-88
2021/09/24 04:20:58;;;;;;;;;;;;;;;15.19;67.92;97614.86;1672029;84;24425;-88
2021/09/24 04:23:25;;;;;;;;;;;;;;;15.20;68.06;97619.16;1650449;85;20947;-88
2021/09/24 04:25:54;;;;;;;;;;;;;;;15.23;68.20;97617.52;1674264;84;24752;-88
2021/09/24 04:28:20;;;;;;;;;;;;;;;15.23;68.33;97628.06;1671231;84;21966;-88
2021/09/24 04:30:46;;;;;;;;;;;;;;;15.26;68.48;97630.89;1669814;84;21037;-88
2021/09/24 04:33:12;;;;;;;;;;;;;;;15.23;68.61;97634.65;1675149;84;20254;-87
2021/09/24 04:35:38;;;;;;;;;;;;;;;15.14;68.70;97636.91;1667039;84;20770;-87
2021/09/24 04:38:10;;;;;;;;;;;;;;;15.10;68.79;97640.84;1680541;84;20246;-87
2021/09/24 04:40:39;;;;;;;;;;;;;;;15.10;68.88;97639.52;1660749;85;22177;-87
2021/09/24 04:43:05;;;;;;;;;;;;;;;15.06;69.00;97635.52;1663191;84;26106;-87
2021/09/24 04:45:31;;;;;;;;;;;;;;;14.98;69.06;97651.30;1664314;84;24397;-88
2021/09/24 04:47:57;;;;;;;;;;;;;;;14.93;69.11;97651.75;1671290;84;20501;-88
2021/09/24 04:50:27;;;;;;;;;;;;;;;14.87;69.15;97666.02;1661670;84;20804;-87
2021/09/24 04:52:59;;;;;;;;;;;;;;;14.85;69.19;97666.17;1667099;84;22184;-88
2021/09/24 04:55:25;;;;;;;;;;;;;;;14.82;69.23;97664.34;1673391;84;26078;-87
2021/09/24 04:57:51;;;;;;;;;;;;;;;14.77;69.25;97673.19;1639231;85;25065;-87
2021/09/24 05:00:17;;;;;;;;;;;;;;;14.71;69.26;97668.52;1672774;84;20784;-87
2021/09/24 05:02:46;;;;;;;;;;;;;;;14.65;69.25;97670.78;1671520;84;20768;-87
2021/09/24 05:05:12;;;;;;;;;;;;;;;14.65;69.28;97680.48;1677813;84;21646;-87
2021/09/24 05:07:38;;;;;;;;;;;;;;;14.65;69.33;97680.00;1676216;83;25945;-87
2021/09/24 05:10:05;;;;;;;;;;;;;;;14.63;69.31;97680.62;1672463;83;24583;-87
2021/09/24 05:12:37;;;;;;;;;;;;;;;14.58;69.29;97684.20;1677601;83;20452;-87
2021/09/24 05:15:03;;;;;;;;;;;;;;;14.56;69.28;97694.56;1674455;84;24924;-87
2021/09/24 05:17:29;;;;;;;;;;;;;;;14.53;69.25;97695.68;1665053;84;22011;-87
2021/09/24 05:19:55;;;;;;;;;;;;;;;14.47;69.21;97694.95;1678788;83;26149;-87
2021/09/24 05:22:22;;;;;;;;;;;;;;;14.42;69.15;97698.53;1676996;84;20279;-88
2021/09/24 05:24:48;;;;;;;;;;;;;;;14.41;69.11;97697.35;1670965;84;20243;-88
2021/09/24 05:27:14;;;;;;;;;;;;;;;14.40;69.11;97707.57;1677447;83;20301;-88
2021/09/24 05:29:40;;;;;;;;;;;;;;;14.35;69.09;97705.33;1680186;83;21923;-87
2021/09/24 05:32:06;;;;;;;;;;;;;;;14.30;69.00;97720.73;1677701;84;25970;-88
2021/09/24 05:34:39;;;;;;;;;;;;;;;14.29;68.97;97716.47;1659515;85;25012;-88
2021/09/24 05:37:05;;;;;;;;;;;;;;;14.28;68.93;97716.13;1671961;84;20246;-88
2021/09/24 05:39:31;;;;;;;;;;;;;;;14.27;68.88;97709.69;1670743;83;24897;-87
2021/09/24 05:42:00;;;;;;;;;;;;;;;14.22;68.79;97712.77;1673502;84;21886;-87
2021/09/24 05:44:25;;;;;;;;;;;;;;;14.17;68.62;97717.64;1681702;83;25949;-87
2021/09/24 05:46:51;;;;;;;;;;;;;;;14.11;68.44;97703.27;1671095;84;20318;-88
2021/09/24 05:49:17;;;;;;;;;;;;;;;14.11;68.28;97713.80;1675766;84;20244;-88
2021/09/24 05:51:45;;;;;;;;;;;;;;;14.11;68.16;97709.84;1669715;84;20818;-88
2021/09/24 05:54:12;;;;;;;;;;;;;;;14.12;68.04;97725.98;1679247;83;22809;-88
2021/09/24 05:56:38;;;;;;;;;;;;;;;14.10;67.88;97716.08;1670843;84;26035;-87
2021/09/24 05:59:04;;;;;;;;;;;;;;;14.15;67.76;97727.48;1670424;84;20330;-87
2021/09/24 06:01:30;;;;;;;;;;;;;;;14.20;67.71;97727.38;1673765;84;20249;-88
2021/09/24 06:03:59;;;;;;;;;;;;;;;14.22;67.65;97724.61;1673352;84;20786;-87
2021/09/24 06:06:26;;;;;;;;;;;;;;;14.22;67.58;97716.71;1659882;85;21932;-87
2021/09/24 06:08:52;;;;;;;;;;;;;;;14.21;67.44;97721.63;1662425;84;26721;-88
2021/09/24 06:11:19;;;;;;;;;;;;;;;14.27;67.37;97720.21;1672624;85;20257;-88
2021/09/24 06:13:45;;;;;;;;;;;;;;;14.27;67.27;97721.53;1676084;85;20137;-88
2021/09/24 06:16:11;;;;;;;;;;;;;;;14.25;67.17;97722.50;1669182;84;21200;-88
2021/09/24 06:18:37;;;;;;;;;;;;;;;14.27;67.05;97726.31;1660307;84;21311;-88
2021/09/24 06:21:03;;;;;;;;;;;;;;;14.30;66.98;97722.53;1669036;84;25998;-87
2021/09/24 06:23:30;;;;;;;;;;;;;;;14.30;66.94;97727.31;1671923;84;20936;-87
2021/09/24 06:25:58;;;;;;;;;;;;;;;14.29;66.83;97722.22;1675850;84;20492;-88
2021/09/24 06:28:23;;;;;;;;;;;;;;;14.27;66.69;97725.48;1675906;84;24952;-88
2021/09/24 06:30:49;;;;;;;;;;;;;;;14.28;66.62;97720.08;1668728;84;20318;-88
2021/09/24 06:33:15;;;;;;;;;;;;;;;14.25;66.47;97722.98;1670272;85;21006;-88
2021/09/24 06:35:41;;;;;;;;;;;;;;;14.27;66.41;97729.42;1665399;84;24528;-88
2021/09/24 06:38:07;;;;;;;;;;;;;;;14.26;66.30;97731.23;1668609;84;20235;-88
2021/09/24 06:40:33;;;;;;;;;;;;;;;14.24;66.14;97734.48;1670616;85;20270;-88
2021/09/24 06:43:00;;;;;;;;;;;;;;;14.20;66.01;97743.66;1668901;84;22066;-87
2021/09/24 06:45:27;;;;;;;;;;;;;;;14.21;65.89;97747.46;1676735;84;20978;-87
2021/09/24 06:47:55;;;;;;;;;;;;;;;14.24;65.79;97766.06;1652032;84;24501;-87
2021/09/24 06:50:20;;;;;;;;;;;;;;;14.25;65.74;97762.46;1667678;85;20365;-88
2021/09/24 06:52:47;;;;;;;;;;;;;;;14.29;65.72;97770.43;1658721;84;24850;-88
2021/09/24 06:55:21;;;;;;;;;;;;;;;14.24;65.59;97771.33;1654548;84;22719;-87
2021/09/24 06:57:45;;;;;;;;;;;;;;;14.24;65.55;97779.22;1663444;84;26066;-87
2021/09/24 07:00:11;;;;;;;;;;;;;;;14.30;65.55;97780.44;1656496;85;24507;-87
2021/09/24 07:02:37;;;;;;;;;;;;;;;14.33;65.55;97781.00;1661890;85;20353;-87
2021/09/24 07:05:03;;;;;;;;;;;;;;;14.35;65.58;97786.09;1651653;85;24722;-87
2021/09/24 07:07:29;;;;;;;;;;;;;;;14.37;65.56;97777.61;1658511;85;21919;-87
2021/09/24 07:09:58;;;;;;;;;;;;;;;14.36;65.54;97787.27;1652388;85;26010;-87
2021/09/24 07:12:23;;;;;;;;;;;;;;;14.39;65.52;97787.52;1658299;85;25241;-88
2021/09/24 07:14:49;;;;;;;;;;;;;;;14.38;65.50;97789.31;1653862;86;20178;-87
2021/09/24 07:17:15;;;;;;;;;;;;;;;14.38;65.47;97794.58;1652687;85;20278;-87
2021/09/24 07:19:47;;;;;;;;;;;;;;;14.35;65.50;97780.83;1666659;84;22024;-87
2021/09/24 07:22:13;;;;;;;;;;;;;;;14.33;65.51;97788.89;1649805;86;25971;-87
2021/09/24 07:24:39;;;;;;;;;;;;;;;14.36;65.57;97787.76;1656044;85;24452;-87
2021/09/24 07:27:06;;;;;;;;;;;;;;;14.39;65.58;97799.36;1664011;84;20508;-87
2021/09/24 07:29:32;;;;;;;;;;;;;;;14.33;65.53;97802.06;1635455;85;25112;-87
2021/09/24 07:31:59;;;;;;;;;;;;;;;14.35;65.55;97798.77;1645200;86;21964;-87
2021/09/24 07:34:25;;;;;;;;;;;;;;;14.38;65.57;97806.42;1663188;84;26237;-87
2021/09/24 07:37:02;;;;;;;;;;;;;;;14.36;65.56;97800.44;1655874;86;24406;-88
2021/09/24 07:39:28;;;;;;;;;;;;;;;14.38;65.56;97805.59;1664683;84;20296;-88
2021/09/24 07:42:00;;;;;;;;;;;;;;;14.36;65.56;97805.70;1651795;86;25381;-88
2021/09/24 07:44:26;;;;;;;;;;;;;;;14.40;65.54;97812.36;1659695;85;22097;-87
2021/09/24 07:46:52;;;;;;;;;;;;;;;14.40;65.57;97813.67;1660558;85;20948;-88
2021/09/24 07:49:20;;;;;;;;;;;;;;;14.39;65.55;97810.72;1654685;86;24413;-88
2021/09/24 07:51:46;;;;;;;;;;;;;;;14.34;65.48;97818.68;1648283;85;20193;-88
2021/09/24 07:54:12;;;;;;;;;;;;;;;14.35;65.41;97820.31;1648970;85;20802;-88
2021/09/24 07:56:38;;;;;;;;;;;;;;;14.31;65.35;97818.95;1651779;85;20805;-88
2021/09/24 07:59:04;;;;;;;;;;;;;;;14.27;65.27;97832.07;1651188;86;20996;-88
2021/09/24 08:01:34;;;;;;;;;;;;;;;14.26;65.17;97840.45;1652352;84;24494;-88
2021/09/24 08:03:58;;;;;;;;;;;;;;;14.24;65.08;97841.07;1660400;84;20479;-88
2021/09/24 08:06:24;;;;;;;;;;;;;;;14.29;65.08;97837.55;1660865;85;24740;-88
2021/09/24 08:08:50;;;;;;;;;;;;;;;14.35;65.09;97837.42;1660470;85;22182;-88
2021/09/24 08:11:17;;;;;;;;;;;;;;;14.40;65.03;97836.56;1659708;85;39829;-88
2021/09/24 08:13:45;;;;;;;;;;;;;;;14.45;64.98;97836.95;1665720;84;24491;-88
2021/09/24 08:16:14;;;;;;;;;;;;;;;14.51;64.94;97839.80;1653657;86;20234;-88
2021/09/24 08:18:40;;;;;;;;;;;;;;;14.56;64.87;97838.88;1660842;85;24728;-88
2021/09/24 08:21:06;;;;;;;;;;;;;;;14.68;64.87;97849.22;1656628;85;21989;-88
2021/09/24 08:23:41;;;;;;;;;;;;;;;14.77;64.87;97842.60;1653217;84;26684;-88
2021/09/24 08:26:06;;;;;;;;;;;;;;;14.88;64.87;97836.30;1656026;85;24554;-88
2021/09/24 08:28:32;;;;;;;;;;;;;;;14.93;64.80;97841.95;1647305;86;20539;-88
2021/09/24 08:30:58;;;;;;;;;;;;;;;14.97;64.73;97840.66;1666618;84;24969;-88
2021/09/24 08:33:24;;;;;;;;;;;;;;;15.00;64.63;97846.97;1660270;85;20250;-88
2021/09/24 08:35:52;;;;;;;;;;;;;;;15.04;64.53;97847.00;1648907;85;20841;-88
2021/09/24 08:38:18;;;;;;;;;;;;;;;15.08;64.43;97847.03;1654197;85;24605;-88
2021/09/24 08:40:44;;;;;;;;;;;;;;;15.15;64.37;97847.27;1648835;85;20865;-87
2021/09/24 08:43:11;;;;;;;;;;;;;;;15.14;64.27;97849.08;1643945;84;20257;-87
2021/09/24 08:45:37;;;;;;;;;;;;;;;15.05;64.04;97850.78;1662197;85;22080;-87
2021/09/24 08:48:04;;;;;;;;;;;;;;;15.01;63.88;97845.97;1644641;86;21064;-87
2021/09/24 08:50:31;;;;;;;;;;;;;;;14.99;63.76;97846.63;1662140;84;24570;-87
2021/09/24 08:52:58;;;;;;;;;;;;;;;14.93;63.54;97846.73;1665082;84;20278;-88
2021/09/24 08:55:24;;;;;;;;;;;;;;;14.97;63.44;97856.47;1666510;85;24834;-88
2021/09/24 08:57:52;;;;;;;;;;;;;;;15.01;63.42;97856.50;1656883;84;22106;-87
2021/09/24 09:00:19;;;;;;;;;;;;;;;15.07;63.38;97857.23;1652678;84;26190;-88
2021/09/24 09:03:13;;;;;;;;;;;;;;;15.13;63.35;97864.55;1658253;84;23871;-87
2021/09/24 09:05:43;;;;;;;;;;;;;;;15.17;63.27;97859.80;1647095;84;20538;-88
2021/09/24 09:08:20;;;;;;;;;;;;;;;15.20;63.19;97861.66;1690624;83;24798;-88
2021/09/24 09:10:52;;;;;;;;;;;;;;;15.24;63.14;97868.28;1659778;86;22056;-88
2021/09/24 09:13:19;;;;;;;;;;;;;;;15.28;63.03;97863.53;1658153;85;26052;-88
2021/09/24 09:15:47;;;;;;;;;;;;;;;15.31;62.96;97868.03;1655199;85;24408;-87
2021/09/24 09:18:15;;;;;;;;;;;;;;;15.35;62.87;97867.23;1645501;85;20249;-88
2021/09/24 09:20:43;;;;;;;;;;;;;;;15.40;62.82;97861.02;1657289;84;24999;-87
2021/09/24 09:23:10;;;;;;;;;;;;;;;15.48;62.78;97869.84;1657729;85;22752;-87
2021/09/24 09:25:38;;;;;;;;;;;;;;;15.59;62.75;97870.62;1678605;83;25999;-87
2021/09/24 09:28:06;;;;;;;;;;;;;;;15.63;62.67;97863.56;1688785;83;24526;-88
2021/09/24 09:30:34;;;;;;;;;;;;;;;15.66;62.58;97871.16;1655621;84;20283;-88
2021/09/24 09:33:14;;;;;;;;;;;;;;;15.67;62.43;97862.75;1689475;83;25022;-87
2021/09/24 09:35:39;;;;;;;;;;;;;;;15.74;62.38;97867.77;1685155;83;22072;-88
2021/09/24 09:38:05;;;;;;;;;;;;;;;15.81;62.31;97866.17;1658509;84;26002;-87
2021/09/24 09:40:33;;;;;;;;;;;;;;;15.86;62.27;97874.46;1653525;84;24544;-87
2021/09/24 09:42:59;;;;;;;;;;;;;;;15.88;62.21;97885.19;1663739;84;20200;-87
2021/09/24 09:45:27;;;;;;;;;;;;;;;15.94;62.15;97886.87;1663318;85;20759;-87
2021/09/24 09:47:59;;;;;;;;;;;;;;;16.00;62.11;97883.61;1689328;83;22615;-87
2021/09/24 09:50:26;;;;;;;;;;;;;;;16.08;62.17;97892.44;1684660;83;26145;-87
2021/09/24 09:53:12;;;;;;;;;;;;;;;16.05;62.09;97892.73;1688460;83;24533;-87
2021/09/24 09:55:44;;;;;;;;;;;;;;;15.95;61.91;97882.77;1690087;83;20454;-87
2021/09/24 09:58:11;;;;;;;;;;;;;;;15.84;61.70;97883.84;1688942;82;24260;-88
2021/09/24 10:00:39;;;;;;;;;;;;;;;15.80;61.61;97889.58;1686891;83;22004;-87
2021/09/24 10:03:06;;;;;;;;;;;;;;;15.77;61.51;97894.66;1681139;84;26810;-87
2021/09/24 10:05:41;;;;;;;;;;;;;;;15.71;61.43;97895.78;1687689;83;24697;-88
2021/09/24 10:08:17;;;;;;;;;;;;;;;15.65;61.30;97901.66;1685367;83;20263;-87
2021/09/24 10:10:54;;;;;;;;;;;;;;;15.63;61.20;97908.89;1689184;83;24806;-88
2021/09/24 10:13:20;;;;;;;;;;;;;;;15.62;61.11;97901.95;1687493;83;21979;-88
2021/09/24 10:15:48;;;;;;;;;;;;;;;15.66;61.08;97908.58;1685495;83;26195;-87
2021/09/24 10:18:14;;;;;;;;;;;;;;;15.71;61.02;97914.25;1688624;83;25077;-87
2021/09/24 10:20:40;;;;;;;;;;;;;;;15.85;61.05;97915.85;1689886;83;20831;-87
2021/09/24 10:23:06;;;;;;;;;;;;;;;16.05;61.13;97919.13;1686954;83;24823;-88
2021/09/24 10:25:33;;;;;;;;;;;;;;;16.25;61.25;97928.53;1687012;83;21626;-88
2021/09/24 10:28:01;;;;;;;;;;;;;;;16.42;61.28;97918.87;1688951;83;26748;-88
2021/09/24 10:30:29;;;;;;;;;;;;;;;16.48;61.12;97929.30;1687114;82;24439;-88
2021/09/24 10:32:56;;;;;;;;;;;;;;;16.48;60.93;97930.13;1660311;84;20288;-88
2021/09/24 10:35:24;;;;;;;;;;;;;;;16.58;60.93;97934.01;1661964;85;24861;-88
2021/09/24 10:37:52;;;;;;;;;;;;;;;16.64;60.86;97934.70;1667501;83;22734;-88
2021/09/24 10:40:23;;;;;;;;;;;;;;;16.60;60.63;97929.41;1660237;85;26690;-88
2021/09/24 10:42:57;;;;;;;;;;;;;;;16.61;60.42;97933.22;1688586;83;24513;-89
2021/09/24 10:45:32;;;;;;;;;;;;;;;16.78;60.38;97924.89;1665569;84;20302;-88
2021/09/24 10:48:00;;;;;;;;;;;;;;;16.90;60.34;97934.69;1651845;85;25390;-89
2021/09/24 10:50:36;;;;;;;;;;;;;;;16.93;60.15;97928.58;1659425;85;22032;-88
2021/09/24 10:53:19;;;;;;;;;;;;;;;16.93;59.88;97936.51;1673778;83;26182;-88
2021/09/24 10:55:47;;;;;;;;;;;;;;;16.94;59.73;97927.59;1668125;85;24529;-88
2021/09/24 10:58:30;;;;;;;;;;;;;;;16.93;59.57;97929.90;1652329;85;20228;-88
2021/09/24 11:01:00;;;;;;;;;;;;;;;16.92;59.42;97926.91;1658648;85;24732;-89
2021/09/24 11:03:29;;;;;;;;;;;;;;;16.88;59.15;97925.58;1666021;85;22020;-88
2021/09/24 11:06:01;;;;;;;;;;;;;;;16.86;58.97;97926.22;1670708;85;26037;-88
2021/09/24 11:08:31;;;;;;;;;;;;;;;16.90;58.89;97936.84;1655447;85;25119;-88
2021/09/24 11:11:05;;;;;;;;;;;;;;;16.93;58.78;97927.25;1678418;84;20244;-88
2021/09/24 11:13:33;;;;;;;;;;;;;;;16.94;58.66;97922.80;1678035;84;26072;-88
2021/09/24 11:16:01;;;;;;;;;;;;;;;17.00;58.61;97922.16;1677178;84;21828;-88
2021/09/24 11:18:52;;;;;;;;;;;;;;;17.03;58.52;97928.44;1680938;84;25988;-88
2021/09/24 11:21:34;;;;;;;;;;;;;;;17.00;58.36;97926.96;1656359;85;24646;-88
2021/09/24 11:24:02;;;;;;;;;;;;;;;17.00;58.20;97922.16;1674328;84;20488;-89
2021/09/24 11:26:29;;;;;;;;;;;;;;;16.91;57.98;97925.78;1650655;84;24914;-88
2021/09/24 11:29:06;;;;;;;;;;;;;;;16.81;57.74;97928.52;1667619;85;22276;-88
2021/09/24 11:31:50;;;;;;;;;;;;;;;16.83;57.65;97929.69;1665235;85;25730;-88
2021/09/24 11:34:46;;;;;;;;;;;;;;;16.89;57.55;97926.41;1664888;85;24612;-88
2021/09/24 11:37:07;;;;;;;;;;;;;;;16.98;57.48;97932.89;1652327;85;20717;-89
2021/09/24 11:39:34;;;;;;;;;;;;;;;17.12;57.50;97929.66;1642531;85;25712;-88
2021/09/24 11:42:13;;;;;;;;;;;;;;;17.22;57.55;97920.75;1646554;85;21462;-88
2021/09/24 11:44:44;;;;;;;;;;;;;;;17.27;57.48;97931.67;1656637;85;26011;-89
2021/09/24 11:47:27;;;;;;;;;;;;;;;17.32;57.45;97927.55;1674580;84;23968;-88
2021/09/24 11:49:55;;;;;;;;;;;;;;;17.35;57.42;97930.34;1687706;83;20360;-88
2021/09/24 11:52:22;;;;;;;;;;;;;;;17.39;57.32;97923.77;1688617;83;24719;-89
2021/09/24 11:54:54;;;;;;;;;;;;;;;17.41;57.26;97917.31;1686454;83;22114;-89
2021/09/24 11:57:23;;;;;;;;;;;;;;;17.48;57.27;97914.36;1681958;83;23400;-88
2021/09/24 11:59:49;;;;;;;;;;;;;;;17.46;57.18;97920.78;1688355;83;24522;-89
2021/09/24 12:02:19;;;;;;;;;;;;;;;17.37;57.07;97924.41;1692039;83;20510;-89
2021/09/24 12:04:59;;;;;;;;;;;;;;;17.30;57.00;97917.62;1690826;83;24796;-89
2021/09/24 12:07:25;;;;;;;;;;;;;;;17.21;56.94;97913.30;1692334;83;21904;-88
2021/09/24 12:10:00;;;;;;;;;;;;;;;17.14;56.89;97908.31;1691302;83;26075;-89
2021/09/24 12:12:23;;;;;;;;;;;;;;;17.14;56.85;97905.67;1658713;85;24466;-88
2021/09/24 12:14:57;;;;;;;;;;;;;;;17.21;56.86;97908.51;1674849;83;20271;-90
2021/09/24 12:17:24;;;;;;;;;;;;;;;17.27;56.90;97904.73;1650472;84;24837;-89
2021/09/24 12:19:50;;;;;;;;;;;;;;;17.39;56.94;97903.93;1656714;84;22676;-89
2021/09/24 12:22:18;;;;;;;;;;;;;;;17.47;57.01;97907.89;1659186;85;21071;-88
2021/09/24 12:24:47;;;;;;;;;;;;;;;17.51;57.00;97899.46;1660714;85;24623;-88
2021/09/24 12:27:15;;;;;;;;;;;;;;;17.54;56.98;97908.91;1658464;85;20249;-89
2021/09/24 12:29:42;;;;;;;;;;;;;;;17.58;56.96;97904.94;1658442;85;24868;-89
2021/09/24 12:32:10;;;;;;;;;;;;;;;17.64;56.97;97906.13;1659512;85;21897;-88
2021/09/24 12:34:47;;;;;;;;;;;;;;;17.69;56.91;97905.14;1656321;84;25932;-88
2021/09/24 12:37:14;;;;;;;;;;;;;;;17.66;56.81;97902.84;1663255;85;24454;-86
2021/09/24 12:39:41;;;;;;;;;;;;;;;17.72;56.81;97900.36;1656446;84;20179;-86
2021/09/24 12:42:12;;;;;;;;;;;;;;;17.82;56.86;97909.45;1660522;84;25611;-86
2021/09/24 12:45:01;;;;;;;;;;;;;;;17.89;56.86;97903.31;1691675;83;22893;-86
2021/09/24 12:47:26;;;;;;;;;;;;;;;17.98;56.89;97907.64;1689977;83;26861;-86
2021/09/24 12:49:55;;;;;;;;;;;;;;;18.06;56.86;97902.81;1688668;83;20496;-86
2021/09/24 12:52:22;;;;;;;;;;;;;;;18.11;56.82;97903.66;1655593;86;20193;-86
2021/09/24 12:54:48;;;;;;;;;;;;;;;18.14;56.72;97908.61;1649525;85;24895;-86